createdAt,value
2023-04-29T00:00:11.370Z,99700.78
2023-04-29T00:02:42.839Z,99692.06
2023-04-29T00:05:14.401Z,99685.63
2023-04-29T00:07:43.037Z,99683.16
2023-04-29T00:10:12.540Z,99686.00
2023-04-29T00:12:41.580Z,99683.22
2023-04-29T00:15:09.954Z,99692.75
2023-04-29T00:17:38.119Z,99694.22
2023-04-29T00:20:06.861Z,99696.63
2023-04-29T00:22:36.417Z,99686.38
2023-04-29T00:25:04.689Z,99677.97
2023-04-29T00:27:32.678Z,99680.78
2023-04-29T00:30:00.527Z,99676.47
2023-04-29T00:32:28.836Z,99676.09
2023-04-29T00:34:57.573Z,99683.84
2023-04-29T00:37:25.677Z,99678.13
2023-04-29T00:39:55.386Z,99687.75
2023-04-29T00:42:23.784Z,99687.19
2023-04-29T00:44:51.647Z,99692.75
2023-04-29T00:47:19.683Z,99682.47
2023-04-29T00:49:47.747Z,99688.28
2023-04-29T00:52:16.145Z,99703.53
2023-04-29T00:54:44.957Z,99696.34
2023-04-29T00:57:16.734Z,99698.97
2023-04-29T00:59:45.912Z,99699.16
2023-04-29T01:02:15.186Z,99697.19
2023-04-29T01:04:43.648Z,99695.31
2023-04-29T01:07:15.798Z,99713.06
2023-04-29T01:09:50.017Z,99715.97
2023-04-29T01:12:27.432Z,99714.03
2023-04-29T01:15:05.060Z,99723.44
2023-04-29T01:17:38.655Z,99720.66
2023-04-29T01:20:07.932Z,99720.81
2023-04-29T01:22:36.871Z,99722.31
2023-04-29T01:25:06.930Z,99727.59
2023-04-29T01:27:52.622Z,99720.34
2023-04-29T01:30:25.982Z,99722.16
2023-04-29T01:32:57.051Z,99725.31
2023-04-29T01:35:41.962Z,99720.19
2023-04-29T01:38:19.578Z,99716.34
2023-04-29T01:40:56.879Z,99704.06
2023-04-29T01:43:29.588Z,99688.50
2023-04-29T01:45:59.453Z,99700.06
2023-04-29T01:48:28.243Z,99691.66
2023-04-29T01:50:55.978Z,99693.38
2023-04-29T01:53:23.814Z,99706.28
2023-04-29T01:55:52.971Z,99705.56
2023-04-29T01:58:24.267Z,99706.59
2023-04-29T02:01:02.184Z,99712.53
2023-04-29T02:03:33.091Z,99706.59
2023-04-29T02:06:02.766Z,99712.59
2023-04-29T02:08:30.938Z,99716.22
2023-04-29T02:11:00.778Z,99711.78
2023-04-29T02:13:39.696Z,99718.97
2023-04-29T02:16:11.419Z,99705.38
2023-04-29T02:18:59.255Z,99693.13
2023-04-29T02:21:27.303Z,99688.06
2023-04-29T02:24:11.388Z,99696.88
2023-04-29T02:26:40.400Z,99697.38
2023-04-29T02:29:10.953Z,99697.41
2023-04-29T02:31:39.133Z,99702.50
2023-04-29T02:34:07.534Z,99693.97
2023-04-29T02:36:35.278Z,99707.72
2023-04-29T02:39:03.131Z,99699.69
2023-04-29T02:41:31.945Z,99702.75
2023-04-29T02:44:01.384Z,99702.63
2023-04-29T02:46:29.379Z,99706.13
2023-04-29T02:48:57.442Z,99707.81
2023-04-29T02:51:25.077Z,99723.06
2023-04-29T02:53:52.901Z,99731.63
2023-04-29T02:56:21.681Z,99738.25
2023-04-29T02:58:49.558Z,99739.19
2023-04-29T03:01:19.035Z,99746.50
2023-04-29T03:03:47.478Z,99744.09
2023-04-29T03:06:15.951Z,99747.22
2023-04-29T03:08:43.637Z,99749.41
2023-04-29T03:11:11.588Z,99750.31
2023-04-29T03:13:39.942Z,99754.09
2023-04-29T03:16:09.140Z,99749.94
2023-04-29T03:18:38.812Z,99755.31
2023-04-29T03:21:07.090Z,99748.00
2023-04-29T03:23:35.196Z,99744.41
2023-04-29T03:26:05.350Z,99740.72
2023-04-29T03:28:33.162Z,99738.75
2023-04-29T03:31:01.907Z,99742.94
2023-04-29T03:33:29.738Z,99747.00
2023-04-29T03:35:58.963Z,99740.09
2023-04-29T03:38:40.050Z,99753.38
2023-04-29T03:41:07.939Z,99751.53
2023-04-29T03:43:35.946Z,99744.75
2023-04-29T03:46:04.239Z,99744.63
2023-04-29T03:48:33.110Z,99748.16
2023-04-29T03:51:03.734Z,99746.84
2023-04-29T03:53:32.986Z,99745.69
2023-04-29T03:56:01.704Z,99742.81
2023-04-29T03:58:29.505Z,99748.75
2023-04-29T04:00:57.869Z,99757.25
2023-04-29T04:03:33.945Z,99756.47
2023-04-29T04:06:03.759Z,99767.69
2023-04-29T04:08:31.667Z,99765.34
2023-04-29T04:11:08.627Z,99763.69
2023-04-29T04:13:41.654Z,99764.88
2023-04-29T04:16:12.138Z,99767.47
2023-04-29T04:18:41.296Z,99772.19
2023-04-29T04:21:11.962Z,99782.38
2023-04-29T04:23:44.005Z,99788.63
2023-04-29T04:26:15.469Z,99789.97
2023-04-29T04:28:44.373Z,99791.44
2023-04-29T04:31:18.674Z,99801.66
2023-04-29T04:33:47.658Z,99803.81
2023-04-29T04:36:17.915Z,99823.19
2023-04-29T04:38:46.343Z,99822.63
2023-04-29T04:41:15.836Z,99827.22
2023-04-29T04:43:46.484Z,99838.19
2023-04-29T04:46:20.450Z,99843.19
2023-04-29T04:49:16.777Z,99847.09
2023-04-29T04:51:55.074Z,99851.78
2023-04-29T04:54:23.224Z,99852.06
2023-04-29T04:56:56.311Z,99853.41
2023-04-29T04:59:24.297Z,99863.66
2023-04-29T05:01:52.113Z,99863.00
2023-04-29T05:04:20.418Z,99862.22
2023-04-29T05:06:48.775Z,99864.59
2023-04-29T05:09:18.056Z,99875.47
2023-04-29T05:11:46.586Z,99876.78
2023-04-29T05:14:18.385Z,99873.91
2023-04-29T05:16:47.113Z,99881.75
2023-04-29T05:19:16.239Z,99884.16
2023-04-29T05:21:45.662Z,99887.84
2023-04-29T05:24:15.558Z,99889.00
2023-04-29T05:26:44.956Z,99899.00
2023-04-29T05:29:12.899Z,99904.38
2023-04-29T05:31:48.808Z,99906.94
2023-04-29T05:34:17.098Z,99910.94
2023-04-29T05:36:44.758Z,99919.50
2023-04-29T05:39:12.705Z,99927.78
2023-04-29T05:41:40.662Z,99932.69
2023-04-29T05:44:20.907Z,99939.66
2023-04-29T05:46:49.276Z,99939.91
2023-04-29T05:49:18.186Z,99946.22
2023-04-29T05:51:45.937Z,99945.69
2023-04-29T05:54:14.473Z,99942.59
2023-04-29T05:56:42.593Z,99953.72
2023-04-29T05:59:10.915Z,99950.81
2023-04-29T06:01:40.487Z,99955.44
2023-04-29T06:04:09.097Z,99954.69
2023-04-29T06:06:58.768Z,99961.59
2023-04-29T06:10:00.017Z,99960.50
2023-04-29T06:12:29.104Z,99959.47
2023-04-29T06:14:59.385Z,99963.00
2023-04-29T06:17:29.929Z,99965.72
2023-04-29T06:19:58.197Z,99968.13
2023-04-29T06:22:26.179Z,99975.22
2023-04-29T06:24:57.133Z,99980.19
2023-04-29T06:27:41.257Z,99983.75
2023-04-29T06:30:09.741Z,99989.19
2023-04-29T06:32:41.854Z,99995.09
2023-04-29T06:35:11.935Z,99999.13
2023-04-29T06:38:11.408Z,99999.00
2023-04-29T06:40:42.168Z,100002.31
2023-04-29T06:43:28.781Z,100002.03
2023-04-29T06:46:17.155Z,100000.50
2023-04-29T06:49:02.483Z,100008.06
2023-04-29T06:51:32.730Z,100011.53
2023-04-29T06:54:01.649Z,100012.38
2023-04-29T06:56:29.453Z,100019.06
2023-04-29T06:58:57.508Z,100020.09
2023-04-29T07:01:25.932Z,100026.47
2023-04-29T07:03:54.266Z,100019.97
2023-04-29T07:06:24.343Z,100040.50
2023-04-29T07:08:54.864Z,100026.72
2023-04-29T07:11:25.191Z,100037.22
2023-04-29T07:13:53.746Z,100033.03
2023-04-29T07:16:22.298Z,100040.03
2023-04-29T07:18:51.348Z,100040.84
2023-04-29T07:21:19.185Z,100044.44
2023-04-29T07:23:48.883Z,100053.16
2023-04-29T07:26:17.781Z,100061.38
2023-04-29T07:28:46.963Z,100065.91
2023-04-29T07:31:16.831Z,100064.38
2023-04-29T07:33:45.810Z,100064.72
2023-04-29T07:36:13.567Z,100070.03
2023-04-29T07:38:41.801Z,100058.09
2023-04-29T07:41:11.939Z,100069.94
2023-04-29T07:43:42.590Z,100068.03
2023-04-29T07:46:10.804Z,100068.91
2023-04-29T07:48:39.465Z,100078.91
2023-04-29T07:51:08.916Z,100083.19
2023-04-29T07:53:36.740Z,100081.63
2023-04-29T07:56:06.468Z,100090.22
2023-04-29T07:58:35.545Z,100091.16
2023-04-29T08:01:07.110Z,100098.38
2023-04-29T08:03:36.850Z,100101.13
2023-04-29T08:06:06.707Z,100092.66
2023-04-29T08:08:36.240Z,100096.72
2023-04-29T08:11:03.916Z,100104.13
2023-04-29T08:13:31.918Z,100106.53
2023-04-29T08:16:01.607Z,100102.78
2023-04-29T08:18:29.955Z,100110.94
2023-04-29T08:20:58.046Z,100109.19
2023-04-29T08:23:26.712Z,100114.38
2023-04-29T08:25:56.064Z,100124.03
2023-04-29T08:28:24.497Z,100127.22
2023-04-29T08:30:52.757Z,100136.22
2023-04-29T08:33:22.329Z,100122.34
2023-04-29T08:35:50.486Z,100127.28
2023-04-29T08:38:18.403Z,100131.53
2023-04-29T08:40:48.263Z,100135.72
2023-04-29T08:43:16.562Z,100137.06
2023-04-29T08:45:44.964Z,100139.66
2023-04-29T08:48:13.307Z,100138.53
2023-04-29T08:50:43.254Z,100148.47
2023-04-29T08:53:12.368Z,100145.25
2023-04-29T08:55:42.920Z,100146.44
2023-04-29T08:58:12.402Z,100140.00
2023-04-29T09:00:41.169Z,100146.81
2023-04-29T09:03:13.797Z,100150.88
2023-04-29T09:05:44.555Z,100157.28
2023-04-29T09:08:12.887Z,100159.97
2023-04-29T09:10:41.297Z,100162.47
2023-04-29T09:13:09.359Z,100158.31
2023-04-29T09:15:37.848Z,100164.88
2023-04-29T09:18:06.157Z,100170.44
2023-04-29T09:20:34.164Z,100165.19
2023-04-29T09:23:04.859Z,100172.59
2023-04-29T09:25:32.947Z,100173.38
2023-04-29T09:28:15.572Z,100174.34
2023-04-29T09:30:47.157Z,100180.75
2023-04-29T09:33:16.915Z,100183.28
2023-04-29T09:35:44.684Z,100180.00
2023-04-29T09:38:14.967Z,100187.78
2023-04-29T09:40:58.308Z,100186.66
2023-04-29T09:43:27.124Z,100185.75
2023-04-29T09:45:55.478Z,100185.09
2023-04-29T09:48:23.545Z,100188.94
2023-04-29T09:51:01.679Z,100192.56
2023-04-29T09:53:32.137Z,100192.09
2023-04-29T09:56:01.210Z,100198.63
2023-04-29T09:58:30.367Z,100187.97
2023-04-29T10:01:01.075Z,100196.69
2023-04-29T10:03:32.977Z,100201.03
2023-04-29T10:06:02.024Z,100195.53
2023-04-29T10:08:32.271Z,100199.03
2023-04-29T10:11:01.035Z,100201.41
2023-04-29T10:13:29.674Z,100199.25
2023-04-29T10:16:02.172Z,100211.25
2023-04-29T10:18:36.430Z,100206.97
2023-04-29T10:21:05.096Z,100200.19
2023-04-29T10:23:34.858Z,100202.66
2023-04-29T10:26:04.432Z,100209.94
2023-04-29T10:28:32.794Z,100214.94
2023-04-29T10:31:02.986Z,100218.84
2023-04-29T10:33:32.401Z,100206.22
2023-04-29T10:36:01.318Z,100214.13
2023-04-29T10:38:30.874Z,100213.59
2023-04-29T10:41:02.469Z,100208.28
2023-04-29T10:43:31.593Z,100210.53
2023-04-29T10:46:18.077Z,100216.25
2023-04-29T10:48:45.890Z,100224.53
2023-04-29T10:51:14.558Z,100227.63
2023-04-29T10:53:57.566Z,100223.09
2023-04-29T10:56:36.283Z,100219.09
2023-04-29T10:59:04.275Z,100222.84
2023-04-29T11:01:42.427Z,100217.38
2023-04-29T11:04:11.760Z,100219.91
2023-04-29T11:06:41.532Z,100217.03
2023-04-29T11:09:11.283Z,100215.91
2023-04-29T11:11:44.352Z,100207.91
2023-04-29T11:14:13.798Z,100206.56
2023-04-29T11:16:49.023Z,100215.38
2023-04-29T11:19:18.618Z,100215.16
2023-04-29T11:21:48.207Z,100208.13
2023-04-29T11:24:17.678Z,100212.69
2023-04-29T11:26:46.791Z,100216.19
2023-04-29T11:29:15.187Z,100217.78
2023-04-29T11:31:43.185Z,100212.59
2023-04-29T11:34:11.834Z,100212.88
2023-04-29T11:36:40.412Z,100216.25
2023-04-29T11:39:09.451Z,100211.75
2023-04-29T11:41:39.449Z,100221.38
2023-04-29T11:44:10.264Z,100219.78
2023-04-29T11:46:38.854Z,100225.00
2023-04-29T11:49:06.758Z,100215.56
2023-04-29T11:51:35.920Z,100218.09
2023-04-29T11:54:04.297Z,100220.50
2023-04-29T11:56:33.259Z,100233.28
2023-04-29T11:59:02.490Z,100223.53
2023-04-29T12:01:31.707Z,100228.88
2023-04-29T12:04:01.231Z,100226.75
2023-04-29T12:06:30.487Z,100223.03
2023-04-29T12:09:00.180Z,100224.41
2023-04-29T12:11:28.419Z,100224.03
2023-04-29T12:13:56.825Z,100232.88
2023-04-29T12:16:26.027Z,100226.97
2023-04-29T12:18:56.072Z,100217.94
2023-04-29T12:21:24.113Z,100220.53
2023-04-29T12:23:52.035Z,100213.97
2023-04-29T12:26:21.262Z,100214.97
2023-04-29T12:28:50.341Z,100226.50
2023-04-29T12:31:18.788Z,100227.63
2023-04-29T12:33:46.708Z,100214.38
2023-04-29T12:36:19.347Z,100218.25
2023-04-29T12:38:48.731Z,100215.16
2023-04-29T12:41:17.572Z,100215.81
2023-04-29T12:43:46.837Z,100222.44
2023-04-29T12:46:15.325Z,100217.28
2023-04-29T12:48:44.512Z,100217.31
2023-04-29T12:51:13.466Z,100206.81
2023-04-29T12:53:42.782Z,100216.28
2023-04-29T12:56:13.205Z,100207.47
2023-04-29T12:58:41.809Z,100220.19
2023-04-29T13:03:38.092Z,100219.13
2023-04-29T13:06:08.897Z,100214.69
2023-04-29T13:08:38.009Z,100219.53
2023-04-29T13:11:07.634Z,100216.59
2023-04-29T13:13:35.807Z,100217.22
2023-04-29T13:16:04.303Z,100213.84
2023-04-29T13:18:34.789Z,100214.41
2023-04-29T13:21:04.583Z,100211.75
2023-04-29T13:23:32.765Z,100214.88
2023-04-29T13:26:01.295Z,100220.88
2023-04-29T13:28:30.642Z,100223.03
2023-04-29T13:30:58.862Z,100222.94
2023-04-29T13:33:26.927Z,100221.22
2023-04-29T13:35:54.910Z,100218.75
2023-04-29T13:38:23.112Z,100225.44
2023-04-29T13:40:54.791Z,100227.00
2023-04-29T13:43:33.835Z,100229.28
2023-04-29T13:46:08.439Z,100229.63
2023-04-29T13:49:11.183Z,100234.50
2023-04-29T13:52:09.802Z,100234.94
2023-04-29T14:04:22.252Z,100228.91
2023-04-29T14:06:50.198Z,100229.75
2023-04-29T14:09:18.865Z,100230.16
2023-04-29T14:11:47.008Z,100239.38
2023-04-29T14:14:15.221Z,100236.06
2023-04-29T14:16:44.313Z,100242.03
2023-04-29T14:19:13.982Z,100236.75
2023-04-29T14:21:41.879Z,100242.28
2023-04-29T14:24:09.926Z,100239.94
2023-04-29T14:26:37.901Z,100241.88
2023-04-29T14:29:06.090Z,100247.72
2023-04-29T14:31:37.998Z,100245.41
2023-04-29T14:34:06.788Z,100250.41
2023-04-29T14:36:36.786Z,100252.50
2023-04-29T14:39:05.602Z,100251.00
2023-04-29T14:41:34.202Z,100265.09
2023-04-29T14:44:02.557Z,100257.88
2023-04-29T14:46:30.877Z,100272.31
2023-04-29T14:48:59.076Z,100268.69
2023-04-29T14:51:27.402Z,100266.88
2023-04-29T14:53:57.025Z,100277.53
2023-04-29T16:11:32.267Z,100322.06
2023-04-29T16:14:01.338Z,100329.00
2023-04-29T16:16:29.215Z,100330.84
2023-04-29T16:18:57.252Z,100319.19
2023-04-29T16:21:27.732Z,100334.63
2023-04-29T16:23:55.639Z,100333.28
2023-04-29T16:26:23.886Z,100334.06
2023-04-29T16:28:53.233Z,100335.81
2023-04-29T16:31:21.129Z,100338.66
2023-04-29T16:33:49.436Z,100341.63
2023-04-29T16:36:17.340Z,100335.81
2023-04-29T16:38:45.785Z,100342.47
2023-04-29T16:41:15.700Z,100347.53
2023-04-29T16:43:43.425Z,100341.41
2023-04-29T16:46:12.727Z,100337.47
2023-04-29T16:48:40.840Z,100340.66
2023-04-29T16:51:09.644Z,100343.50
2023-04-29T16:53:37.736Z,100349.66
2023-04-29T16:56:05.888Z,100358.66
2023-04-29T16:58:33.632Z,100347.44
2023-04-29T17:01:02.090Z,100344.81
2023-04-29T17:03:31.621Z,100350.56
2023-04-29T17:05:59.848Z,100365.31
2023-04-29T17:08:28.750Z,100360.41
2023-04-29T17:10:57.633Z,100363.69
2023-04-29T17:13:25.958Z,100355.59
2023-04-29T17:15:54.116Z,100363.59
2023-04-29T17:18:22.650Z,100363.78
2023-04-29T17:20:51.854Z,100370.28
2023-04-29T17:23:19.497Z,100365.59
2023-04-29T17:25:47.486Z,100362.00
2023-04-29T17:28:15.865Z,100366.56
2023-04-29T17:30:43.611Z,100375.59
2023-04-29T17:33:13.416Z,100377.28
2023-04-29T17:35:41.906Z,100377.59
2023-04-29T17:38:12.469Z,100380.59
2023-04-29T17:40:40.500Z,100383.56
2023-04-29T17:43:08.547Z,100383.19
2023-04-29T17:45:40.135Z,100383.56
2023-04-29T17:48:08.295Z,100387.13
2023-04-29T17:50:36.149Z,100384.50
2023-04-29T17:53:03.816Z,100391.44
2023-04-29T17:55:32.896Z,100382.94
2023-04-29T17:58:00.892Z,100386.78
2023-04-29T18:00:28.736Z,100392.00
2023-04-29T18:02:56.870Z,100392.34
2023-04-29T18:05:25.226Z,100394.97
2023-04-29T18:07:52.858Z,100397.78
2023-04-29T18:10:20.940Z,100403.00
2023-04-29T18:12:50.276Z,100402.03
2023-04-29T18:15:18.533Z,100411.28
2023-04-29T18:17:46.747Z,100405.91
2023-04-29T18:20:14.622Z,100409.63
2023-04-29T18:22:42.764Z,100413.63
2023-04-29T18:25:12.383Z,100413.22
2023-04-29T18:27:40.678Z,100410.91
2023-04-29T18:30:10.820Z,100414.00
2023-04-29T18:32:39.224Z,100409.31
2023-04-29T18:35:07.505Z,100418.41
2023-04-29T18:37:36.033Z,100412.34
2023-04-29T18:40:05.685Z,100415.59
2023-04-29T18:42:33.809Z,100412.25
2023-04-29T18:45:01.780Z,100422.13
2023-04-29T18:47:31.617Z,100413.53
2023-04-29T18:49:59.620Z,100419.56
2023-04-29T18:52:30.016Z,100419.06
2023-04-29T18:54:58.350Z,100424.78
2023-04-29T18:57:29.776Z,100428.44
2023-04-29T18:59:58.391Z,100431.69
2023-04-29T19:02:26.491Z,100440.00
2023-04-29T19:04:57.255Z,100438.03
2023-04-29T19:07:26.183Z,100446.38
2023-04-29T19:09:55.862Z,100447.81
2023-04-29T19:12:25.776Z,100454.72
2023-04-29T19:14:54.064Z,100455.00
2023-04-29T19:17:22.422Z,100456.59
2023-04-29T19:19:51.190Z,100457.81
2023-04-29T19:22:20.850Z,100459.00
2023-04-29T19:24:49.057Z,100468.78
2023-04-29T19:27:19.620Z,100469.72
2023-04-29T19:29:47.799Z,100472.53
2023-04-29T19:32:17.124Z,100476.28
2023-04-29T19:34:45.376Z,100468.88
2023-04-29T19:37:13.714Z,100472.75
2023-04-29T19:39:43.567Z,100475.16
2023-04-29T19:42:12.592Z,100477.75
2023-04-29T19:44:40.786Z,100480.56
2023-04-29T19:47:12.845Z,100472.13
2023-04-29T19:49:41.954Z,100480.56
2023-04-29T19:52:10.359Z,100477.50
2023-04-29T19:54:38.970Z,100471.66
2023-04-29T19:57:08.122Z,100466.38
2023-04-29T19:59:35.778Z,100474.38
2023-04-29T20:02:03.610Z,100477.72
2023-04-29T20:04:31.548Z,100483.59
2023-04-29T20:06:59.597Z,100482.84
2023-04-29T20:09:27.943Z,100484.50
2023-04-29T20:11:55.695Z,100483.38
2023-04-29T20:14:25.004Z,100486.91
2023-04-29T20:16:54.623Z,100478.75
2023-04-29T20:19:22.514Z,100484.88
2023-04-29T20:21:51.124Z,100481.25
2023-04-29T20:24:18.696Z,100481.78
2023-04-29T20:26:46.519Z,100482.00
2023-04-29T20:29:14.207Z,100481.50
2023-04-29T20:31:44.005Z,100484.66
2023-04-29T20:34:12.353Z,100488.19
2023-04-29T20:36:40.126Z,100484.22
2023-04-29T20:39:09.585Z,100485.47
2023-04-29T20:41:37.669Z,100489.06
2023-04-29T20:44:05.502Z,100491.66
2023-04-29T20:46:33.373Z,100493.50
2023-04-29T20:49:02.631Z,100498.81
2023-04-29T20:51:32.591Z,100497.97
2023-04-29T20:54:00.752Z,100505.78
2023-04-29T20:56:29.678Z,100496.47
2023-04-29T20:58:59.384Z,100496.16
2023-04-29T21:01:27.191Z,100506.53
2023-04-29T21:03:55.567Z,100499.75
2023-04-29T21:06:27.465Z,100506.75
2023-04-29T21:08:56.110Z,100501.72
2023-04-29T21:11:23.694Z,100509.09
2023-04-29T21:13:52.054Z,100512.06
2023-04-29T21:16:20.348Z,100511.00
2023-04-29T21:18:48.070Z,100516.00
2023-04-29T21:21:15.826Z,100510.69
2023-04-29T21:23:44.989Z,100509.25
2023-04-29T21:26:14.921Z,100513.53
2023-04-29T21:28:42.847Z,100508.19
2023-04-29T21:31:15.359Z,100512.56
2023-04-29T21:34:02.250Z,100505.03
2023-04-29T21:36:32.643Z,100507.06
2023-04-29T21:39:02.274Z,100512.56
2023-04-29T21:41:30.757Z,100513.59
2023-04-29T21:44:00.578Z,100512.69
2023-04-29T21:46:28.733Z,100514.75
2023-04-29T21:48:58.343Z,100511.00
2023-04-29T21:51:26.401Z,100514.44
2023-04-29T21:53:54.205Z,100516.00
2023-04-29T21:56:24.448Z,100517.47
2023-04-29T21:58:52.538Z,100516.22
2023-04-29T22:01:48.212Z,100519.88
2023-04-29T22:04:16.774Z,100515.31
2023-04-29T22:06:44.751Z,100516.00
2023-04-29T22:09:12.666Z,100511.06
2023-04-29T22:11:42.476Z,100513.75
2023-04-29T22:14:10.185Z,100512.00
2023-04-29T22:16:38.367Z,100521.16
2023-04-29T22:19:07.415Z,100514.47
2023-04-29T22:21:38.042Z,100521.16
2023-04-29T22:24:06.216Z,100520.41
2023-04-29T22:26:34.113Z,100520.94
2023-04-29T22:29:03.302Z,100525.53
2023-04-29T22:31:31.112Z,100521.41
2023-04-29T22:33:58.919Z,100531.97
2023-04-29T22:36:27.259Z,100533.75
2023-04-29T22:38:55.005Z,100540.53
2023-04-29T22:41:22.908Z,100535.66
2023-04-29T22:43:52.185Z,100535.63
2023-04-29T22:46:21.542Z,100542.31
2023-04-29T22:48:49.476Z,100535.22
2023-04-29T22:51:17.398Z,100536.25
2023-04-29T22:53:45.198Z,100534.47
2023-04-29T22:56:15.472Z,100532.34
2023-04-29T22:58:43.084Z,100535.53
2023-04-29T23:01:12.180Z,100540.03
2023-04-29T23:03:41.282Z,100536.63
2023-04-29T23:06:09.143Z,100533.66
2023-04-29T23:08:36.841Z,100534.66
2023-04-29T23:11:05.313Z,100535.81
2023-04-29T23:13:32.965Z,100541.88
2023-04-29T23:16:01.078Z,100537.88
2023-04-29T23:18:28.826Z,100538.06
2023-04-29T23:20:58.049Z,100541.88
2023-04-29T23:23:25.880Z,100541.97
2023-04-29T23:25:53.544Z,100549.53
2023-04-29T23:28:21.356Z,100550.13
2023-04-29T23:30:49.255Z,100551.06
2023-04-29T23:33:17.765Z,100549.44
2023-04-29T23:35:49.748Z,100550.88
2023-04-29T23:38:18.905Z,100551.53
2023-04-29T23:40:50.650Z,100548.06
2023-04-29T23:43:19.524Z,100547.75
2023-04-29T23:45:48.393Z,100535.97
2023-04-29T23:48:16.837Z,100540.06
2023-04-29T23:50:44.774Z,100539.19
2023-04-29T23:53:12.469Z,100545.25
2023-04-29T23:55:41.608Z,100542.78
2023-04-29T23:58:09.414Z,100536.31
